CDT,Max TemperatureF,Mean TemperatureF,Min TemperatureF,Max Dew PointF,MeanDew PointF,Min DewpointF,Max Humidity, Mean Humidity, Min Humidity, Max Sea Level PressureIn, Mean Sea Level PressureIn, Min Sea Level PressureIn, Max VisibilityMiles, Mean VisibilityMiles, Min VisibilityMiles, Max Wind SpeedMPH, Mean Wind SpeedMPH, Max Gust SpeedMPH,PrecipitationIn, CloudCover, Events, WindDirDegrees
2014-3-1,39,28,17,36,30,15,100,90,73,30.22,30.03,29.91,9,4,0,28,15,37,0.00,7,Fog-Rain-Snow,22
2014-3-2,17,12,8,14,5,3,88,79,67,30.52,30.32,30.19,10,4,0,31,24,37,0.05,8,Fog-Snow,4
2014-3-3,21,12,3,12,4,-2,80,67,46,30.58,30.44,30.28,10,10,9,23,15,28,0.00,1,,20
2014-3-4,52,34,17,29,22,14,88,65,40,30.27,30.07,29.95,10,10,10,20,14,,0.00,0,,176
2014-3-5,45,38,30,34,31,26,93,83,57,30.28,30.13,29.92,10,5,2,24,14,31,0.15,5,Rain,19
2014-3-6,52,40,28,40,33,27,93,83,61,30.28,30.16,29.94,10,6,2,22,7,,0.00,5,,177
2014-3-7,73,56,39,40,36,33,79,58,24,29.91,29.78,29.63,10,10,7,29,21,36,0.00,0,,178
2014-3-8,39,34,30,34,25,19,86,67,47,30.39,30.22,29.94,10,10,6,33,24,40,0.00,8,,358
2014-3-9,63,44,25,26,23,20,81,47,22,30.38,30.26,30.10,10,10,10,14,7,,0.00,0,,234
2014-3-10,78,56,36,36,24,15,59,34,10,30.10,29.92,29.71,10,10,10,21,15,28,0.00,0,,201
2014-3-11,81,62,42,47,38,26,93,56,14,30.05,29.66,29.47,10,10,8,41,23,59,0.00,2,,281
2014-3-12,57,46,34,30,22,15,79,47,20,30.37,30.27,30.08,10,10,10,38,22,53,0.00,0,,336
2014-3-13,66,50,34,19,17,14,54,31,13,30.27,30.12,29.89,10,10,10,31,14,36,0.00,0,,212
2014-3-14,70,56,43,28,23,16,43,30,17,30.01,29.93,29.85,10,10,10,31,19,39,0.00,0,,81
2014-3-15,60,50,41,52,42,27,94,72,43,29.96,29.84,29.73,10,9,6,28,7,38,0.43,4,Rain,49
2014-3-16,48,41,34,38,28,19,76,61,33,30.20,30.11,29.94,10,10,10,37,24,47,0.04,4,Rain,355
2014-3-17,63,44,27,29,26,21,81,53,29,30.14,29.81,29.45,10,10,10,31,11,39,0.00,0,,190
2014-3-18,70,56,42,29,26,19,58,34,15,30.01,29.61,29.30,10,8,2,36,25,45,0.00,3,,295
2014-3-19,60,47,35,29,26,21,76,50,23,30.29,30.17,29.99,10,10,10,23,15,29,0.00,0,,355
2014-3-20,73,55,37,30,27,25,62,38,17,30.22,30.04,29.82,10,10,10,25,15,33,0.00,0,,193
2014-3-21,71,58,46,39,30,22,54,37,17,30.04,29.85,29.75,10,10,10,30,19,38,0.00,0,,59
2014-3-22,53,46,39,30,26,19,68,47,34,30.29,30.15,30.02,10,10,10,29,18,34,0.00,6,,33
2014-3-23,46,36,27,24,18,9,62,48,33,30.52,30.39,30.27,10,10,10,28,18,44,0.00,0,,37
2014-3-24,63,48,33,28,25,21,70,47,24,30.30,30.17,30.08,10,10,10,25,13,34,0.00,0,,168
2014-3-25,55,41,27,29,25,22,85,55,28,30.42,30.30,30.13,10,10,10,13,7,18,0.00,0,,154
2014-3-26,55,46,39,51,39,24,93,79,47,30.12,29.89,29.64,10,8,4,34,22,45,0.13,5,Rain-Thunderstorm,165
2014-3-27,78,66,54,54,42,27,93,53,16,29.78,29.61,29.54,10,10,8,33,24,41,0.00,3,,236
2014-3-28,61,50,41,37,32,27,76,55,29,30.17,29.97,29.78,10,10,10,24,15,33,0.00,1,,24
2014-3-29,71,52,34,37,31,24,86,50,19,30.32,30.23,30.15,10,10,9,14,9,20,0.00,0,,216
2014-3-30,79,62,48,38,34,29,52,36,21,30.12,29.94,29.75,10,10,10,33,23,44,0.00,0,,175
2014-3-31,80,68,55,50,31,13,75,35,8,29.93,29.76,29.69,10,10,10,25,19,33,0.00,0,,243